Time;durP1;ratioP1;P1;durP2;ratioP2;P2;SDS_P1;SDS_P2;PMS_P1;PMS_P2;Temp;Humidity;BMP_temperature;BMP_pressure;BME280_temperature;BME280_humidity;BME280_pressure;Samples;Min_cycle;Max_cycle;Signal;HPM_P1;HPM_P2
2021/06/12 00:01:30;;;;;;;5.20;4.70;;;24.10;42.80;;;;;;8372814;28;20303;-45
2021/06/12 00:05:30;;;;;;;6.55;5.85;;;24.10;42.80;;;;;;8359771;28;20064;-46
2021/06/12 00:09:31;;;;;;;8.30;5.07;;;24.10;42.80;;;;;;8361302;28;20045;-45
2021/06/12 00:13:32;;;;;;;5.53;4.93;;;24.20;42.80;;;;;;8387595;28;20040;-45
2021/06/12 00:17:32;;;;;;;5.70;5.13;;;24.10;42.80;;;;;;8362279;28;20060;-44
2021/06/12 00:21:36;;;;;;;6.32;5.28;;;24.10;42.80;;;;;;8374656;28;20096;-45
2021/06/12 00:25:40;;;;;;;7.03;5.13;;;24.10;42.80;;;;;;8393972;28;20433;-45
2021/06/12 00:29:40;;;;;;;5.40;4.85;;;24.10;42.80;;;;;;8387386;28;20079;-44
2021/06/12 00:33:41;;;;;;;6.13;5.45;;;24.10;42.80;;;;;;8363621;28;20029;-45
2021/06/12 00:37:41;;;;;;;7.00;5.73;;;24.10;42.80;;;;;;8360083;28;20068;-46
2021/06/12 00:41:43;;;;;;;5.80;5.20;;;24.10;42.80;;;;;;8389848;28;20267;-46
2021/06/12 00:45:46;;;;;;;6.45;5.28;;;24.10;42.80;;;;;;8392805;28;20083;-46
2021/06/12 00:49:47;;;;;;;6.03;5.43;;;24.10;42.80;;;;;;8397494;28;20044;-45
2021/06/12 00:53:47;;;;;;;5.77;5.17;;;24.10;42.80;;;;;;8390666;28;20081;-46
2021/06/12 00:57:48;;;;;;;9.38;5.78;;;24.10;42.80;;;;;;8392687;28;20275;-46
2021/06/12 01:01:49;;;;;;;;;;;24.00;42.80;;;;;;8393012;28;20635;-45
2021/06/12 01:05:50;;;;;;;7.60;5.05;;;24.00;42.80;;;;;;8362525;28;20337;-46
2021/06/12 01:09:50;;;;;;;6.20;5.60;;;24.00;42.80;;;;;;8359326;28;20056;-45
2021/06/12 01:14:12;;;;;;;5.40;4.90;;;24.00;42.80;;;;;;8359584;28;20058;-45
2021/06/12 01:18:14;;;;;;;6.28;5.43;;;24.00;42.80;;;;;;8368774;28;20041;-45
2021/06/12 01:22:20;;;;;;;5.65;5.03;;;24.00;42.90;;;;;;8372323;28;20424;-45
2021/06/12 01:26:32;;;;;;;5.53;4.90;;;24.00;42.80;;;;;;8361568;28;20033;-47
2021/06/12 01:30:38;;;;;;;5.93;5.13;;;24.00;42.90;;;;;;8358791;28;20045;-45
2021/06/12 01:34:40;;;;;;;6.22;4.80;;;24.00;42.90;;;;;;8382009;28;20067;-45
2021/06/12 01:38:45;;;;;;;5.43;4.82;;;24.00;42.90;;;;;;8389719;28;20056;-45
2021/06/12 01:42:48;;;;;;;6.60;5.47;;;24.00;42.90;;;;;;8376183;28;20120;-46
2021/06/12 01:46:49;;;;;;;5.93;5.30;;;23.90;42.80;;;;;;8387140;28;20056;-45
2021/06/12 01:50:50;;;;;;;5.72;5.10;;;23.90;42.90;;;;;;8364733;28;20430;-46
2021/06/12 01:54:52;;;;;;;5.47;4.85;;;23.90;42.90;;;;;;8391274;28;20036;-45
2021/06/12 01:58:53;;;;;;;5.57;5.03;;;23.90;42.80;;;;;;8388577;28;20029;-47
2021/06/12 02:02:55;;;;;;;6.60;5.20;;;23.90;42.90;;;;;;8395630;28;20025;-46
2021/06/12 02:07:02;;;;;;;5.72;4.78;;;23.90;42.90;;;;;;8374100;28;20037;-46
2021/06/12 02:11:02;;;;;;;5.93;4.90;;;23.90;42.80;;;;;;8382527;28;20428;-45
2021/06/12 02:15:06;;;;;;;6.25;5.43;;;23.90;42.80;;;;;;8381683;28;20037;-47
2021/06/12 02:19:09;;;;;;;6.65;5.70;;;23.90;42.90;;;;;;8357922;28;20064;-45
2021/06/12 02:23:10;;;;;;;6.32;5.18;;;23.90;42.90;;;;;;8363040;28;20044;-45
2021/06/12 02:27:11;;;;;;;6.45;5.55;;;23.80;42.80;;;;;;8390669;28;20044;-46
2021/06/12 02:31:18;;;;;;;5.80;5.20;;;23.80;42.80;;;;;;8390813;28;20043;-45
2021/06/12 02:35:18;;;;;;;5.95;5.13;;;23.90;42.90;;;;;;8389085;28;20079;-45
2021/06/12 02:39:19;;;;;;;5.13;4.63;;;23.80;42.90;;;;;;8395234;28;20033;-46
2021/06/12 02:43:19;;;;;;;6.27;5.37;;;23.80;42.90;;;;;;8370056;28;20260;-48
2021/06/12 02:47:22;;;;;;;5.80;5.07;;;23.80;42.90;;;;;;8355313;28;20329;-47
2021/06/12 02:51:24;;;;;;;7.72;5.18;;;23.80;42.90;;;;;;8370263;28;20036;-46
2021/06/12 02:55:27;;;;;;;5.20;4.70;;;23.80;42.90;;;;;;8369493;28;20126;-47
2021/06/12 02:59:31;;;;;;;6.20;5.60;;;23.80;42.90;;;;;;8365177;28;20024;-45
2021/06/12 03:03:33;;;;;;;6.95;5.45;;;23.80;42.90;;;;;;8390504;28;20044;-46
2021/06/12 03:07:36;;;;;;;6.40;5.55;;;23.80;42.90;;;;;;8390395;28;20075;-46
2021/06/12 03:11:37;;;;;;;6.22;5.22;;;23.80;42.90;;;;;;8392652;28;20085;-45
2021/06/12 03:15:39;;;;;;;6.63;5.65;;;23.70;42.90;;;;;;8386319;28;20068;-46
2021/06/12 03:19:42;;;;;;;6.97;5.13;;;23.80;42.90;;;;;;8363109;28;20490;-45
2021/06/12 03:23:43;;;;;;;6.35;5.38;;;23.70;42.90;;;;;;8361088;28;20044;-46
2021/06/12 03:27:45;;;;;;;5.45;4.93;;;23.70;42.90;;;;;;8362705;28;20041;-46
2021/06/12 03:31:45;;;;;;;;;;;23.70;42.90;;;;;;8387978;28;20032;-46
2021/06/12 03:35:47;;;;;;;6.53;5.47;;;23.70;42.90;;;;;;8389913;28;19952;-45
2021/06/12 03:39:47;;;;;;;5.78;5.10;;;23.70;42.90;;;;;;8362616;28;20033;-45
2021/06/12 03:43:50;;;;;;;6.57;5.57;;;23.70;42.90;;;;;;8362227;28;20025;-46
2021/06/12 03:47:51;;;;;;;5.43;4.60;;;23.70;42.90;;;;;;8360172;28;20143;-45
2021/06/12 03:51:52;;;;;;;6.32;4.90;;;23.70;43.00;;;;;;8366185;28;20033;-46
2021/06/12 03:55:54;;;;;;;6.60;5.43;;;23.70;43.00;;;;;;8360269;28;20111;-46
2021/06/12 03:59:55;;;;;;;6.10;5.47;;;23.70;43.00;;;;;;8386115;28;20039;-45
2021/06/12 04:03:56;;;;;;;6.45;5.60;;;23.60;42.90;;;;;;8361398;28;20041;-45
2021/06/12 04:07:56;;;;;;;5.90;5.30;;;23.60;42.90;;;;;;8364020;28;20049;-46
2021/06/12 04:11:57;;;;;;;6.45;4.80;;;23.60;43.00;;;;;;8370549;28;20082;-45
2021/06/12 04:15:57;;;;;;;6.17;5.00;;;23.60;43.00;;;;;;8394187;28;20032;-45
2021/06/12 04:19:58;;;;;;;5.90;5.07;;;23.60;43.00;;;;;;8392274;28;20822;-45
2021/06/12 04:23:59;;;;;;;5.75;4.78;;;23.60;43.00;;;;;;8383923;28;20041;-46
2021/06/12 04:27:59;;;;;;;5.40;4.90;;;23.60;43.00;;;;;;8365110;28;20135;-45
2021/06/12 04:32:00;;;;;;;6.03;5.47;;;23.60;43.00;;;;;;8359283;28;20032;-45
2021/06/12 04:36:01;;;;;;;5.88;5.28;;;23.60;43.00;;;;;;8360444;28;20037;-45
2021/06/12 04:40:03;;;;;;;5.73;5.03;;;23.60;43.00;;;;;;8360408;28;20036;-45
2021/06/12 04:44:04;;;;;;;6.18;5.45;;;23.60;43.00;;;;;;8389283;28;20279;-45
2021/06/12 04:48:05;;;;;;;6.15;5.32;;;23.60;43.00;;;;;;8393483;28;20082;-46
2021/06/12 04:52:06;;;;;;;;;;;23.60;43.00;;;;;;8375212;28;20059;-45
2021/06/12 04:56:06;;;;;;;5.47;4.97;;;23.60;43.00;;;;;;8360039;28;19919;-45
2021/06/12 05:00:09;;;;;;;5.72;5.10;;;23.60;43.00;;;;;;8385084;28;20025;-45
2021/06/12 05:04:10;;;;;;;6.10;5.10;;;23.60;43.10;;;;;;8362758;28;20037;-45
2021/06/12 05:08:10;;;;;;;5.47;4.97;;;23.60;43.00;;;;;;8357749;28;20064;-45
2021/06/12 05:12:11;;;;;;;5.70;5.10;;;23.50;43.00;;;;;;8359514;28;20474;-47
2021/06/12 05:16:12;;;;;;;6.00;5.40;;;23.60;43.00;;;;;;8359301;28;20029;-47
2021/06/12 05:20:13;;;;;;;6.13;5.53;;;23.70;42.90;;;;;;8389558;28;20060;-46
2021/06/12 05:24:13;;;;;;;6.00;5.40;;;23.70;42.80;;;;;;8392223;28;20401;-48
2021/06/12 05:28:14;;;;;;;5.05;4.45;;;23.80;42.60;;;;;;8391852;28;20135;-46
2021/06/12 05:32:15;;;;;;;6.90;4.78;;;24.00;42.30;;;;;;8389899;28;20035;-45
2021/06/12 05:36:16;;;;;;;5.70;5.18;;;24.10;41.90;;;;;;8396105;28;20020;-46
2021/06/12 05:40:17;;;;;;;5.95;5.35;;;24.10;41.70;;;;;;8391564;28;20143;-45
2021/06/12 05:44:17;;;;;;;5.97;5.35;;;24.20;41.60;;;;;;8390436;28;20035;-46
2021/06/12 05:48:18;;;;;;;6.28;5.68;;;24.20;41.60;;;;;;8379404;28;20090;-46
2021/06/12 05:52:19;;;;;;;5.68;4.85;;;24.20;41.60;;;;;;8378479;28;20032;-46
2021/06/12 05:56:20;;;;;;;6.90;5.38;;;24.20;41.60;;;;;;8365538;28;20068;-46
2021/06/12 06:00:21;;;;;;;5.95;5.22;;;24.20;41.70;;;;;;8357981;28;20033;-46
2021/06/12 06:04:22;;;;;;;5.22;4.72;;;24.10;41.80;;;;;;8378690;28;20055;-46
2021/06/12 06:08:23;;;;;;;6.07;5.47;;;24.10;41.90;;;;;;8389375;28;20037;-46
2021/06/12 06:12:24;;;;;;;;;;;24.00;42.00;;;;;;8396260;28;20537;-45
2021/06/12 06:16:24;;;;;;;7.60;5.20;;;24.00;42.10;;;;;;8369914;28;19913;-46
2021/06/12 06:20:25;;;;;;;5.30;4.80;;;23.90;42.10;;;;;;8384083;28;20114;-46
2021/06/12 06:24:25;;;;;;;5.20;4.70;;;23.90;42.20;;;;;;8391135;28;20039;-46
2021/06/12 06:28:26;;;;;;;6.23;5.60;;;23.90;42.30;;;;;;8373860;28;20295;-46
2021/06/12 06:32:27;;;;;;;5.55;5.05;;;23.80;42.40;;;;;;8355637;28;20037;-46
2021/06/12 06:36:27;;;;;;;6.35;5.25;;;23.80;42.50;;;;;;8357341;28;20064;-45
2021/06/12 06:40:28;;;;;;;5.70;5.10;;;23.80;42.60;;;;;;8357587;28;20130;-45
2021/06/12 06:44:29;;;;;;;6.45;5.10;;;23.80;42.60;;;;;;8386879;28;20279;-46
2021/06/12 06:48:30;;;;;;;7.65;5.82;;;23.70;42.70;;;;;;8401194;28;20125;-46
2021/06/12 06:52:30;;;;;;;6.57;5.38;;;23.70;42.70;;;;;;8396045;28;20036;-45
2021/06/12 06:56:31;;;;;;;6.37;5.57;;;23.70;42.70;;;;;;8394945;28;20519;-46
2021/06/12 07:00:31;;;;;;;5.63;5.03;;;23.70;42.70;;;;;;8382860;28;20333;-46
2021/06/12 07:04:32;;;;;;;7.03;5.40;;;23.70;42.80;;;;;;8389835;28;20032;-46
2021/06/12 07:08:33;;;;;;;5.95;4.95;;;23.70;42.80;;;;;;8394167;28;20066;-46
2021/06/12 07:12:33;;;;;;;6.27;5.37;;;23.70;42.90;;;;;;8396073;28;20029;-45
2021/06/12 07:16:34;;;;;;;5.60;4.97;;;23.70;42.90;;;;;;8373642;28;20660;-47
2021/06/12 07:20:34;;;;;;;6.85;5.38;;;23.60;42.90;;;;;;8392889;28;20056;-46
2021/06/12 07:24:35;;;;;;;5.47;4.70;;;23.70;42.90;;;;;;8397701;28;20036;-46
2021/06/12 07:28:36;;;;;;;6.13;5.53;;;23.70;43.00;;;;;;8373160;28;20390;-45
2021/06/12 07:32:36;;;;;;;6.90;5.70;;;23.70;43.00;;;;;;8391709;28;20127;-47
2021/06/12 07:36:38;;;;;;;5.57;4.80;;;23.60;43.00;;;;;;8381506;28;20284;-46
2021/06/12 07:40:39;;;;;;;6.28;5.55;;;23.70;43.10;;;;;;8389550;28;20037;-47
2021/06/12 07:44:39;;;;;;;6.90;6.00;;;23.70;43.10;;;;;;8393875;28;20580;-47
2021/06/12 07:48:40;;;;;;;6.23;5.57;;;23.70;43.20;;;;;;8379078;28;20105;-46
2021/06/12 07:52:40;;;;;;;7.17;5.73;;;23.70;43.10;;;;;;8361775;28;20337;-48
2021/06/12 07:56:41;;;;;;;5.72;5.05;;;23.70;43.20;;;;;;8364569;28;20478;-47
2021/06/12 08:00:41;;;;;;;6.77;5.37;;;23.70;43.20;;;;;;8361466;28;20045;-46
2021/06/12 08:04:42;;;;;;;6.40;5.07;;;23.70;43.20;;;;;;8385321;28;20047;-47
2021/06/12 08:08:42;;;;;;;6.20;5.43;;;23.70;43.30;;;;;;8392825;28;20324;-46
2021/06/12 08:12:43;;;;;;;6.63;5.67;;;23.70;43.20;;;;;;8394306;28;20259;-46
2021/06/12 08:16:44;;;;;;;6.97;6.07;;;23.70;43.30;;;;;;8398679;28;20025;-46
2021/06/12 08:20:44;;;;;;;7.28;5.35;;;23.70;43.50;;;;;;8391695;28;20041;-46
2021/06/12 08:24:45;;;;;;;7.05;5.22;;;23.70;43.40;;;;;;8378386;28;20071;-47
2021/06/12 08:28:46;;;;;;;6.60;5.63;;;23.70;43.60;;;;;;8361082;28;20052;-46
2021/06/12 08:32:47;;;;;;;7.95;5.95;;;23.70;43.80;;;;;;8363676;28;20025;-46
2021/06/12 08:36:48;;;;;;;7.47;6.20;;;23.80;44.00;;;;;;8360942;28;20067;-48
2021/06/12 08:40:49;;;;;;;6.30;5.65;;;23.80;43.80;;;;;;8384794;28;20048;-47
2021/06/12 08:44:53;;;;;;;6.25;5.50;;;23.80;43.80;;;;;;8366913;28;20089;-46
2021/06/12 08:48:55;;;;;;;6.72;6.03;;;23.90;43.90;;;;;;8397666;28;20047;-47
2021/06/12 08:52:57;;;;;;;7.45;6.70;;;23.80;44.00;;;;;;8367393;28;20040;-47
2021/06/12 08:56:57;;;;;;;9.88;6.28;;;23.90;44.50;;;;;;8368739;28;20075;-46
2021/06/12 09:00:58;;;;;;;6.67;5.60;;;23.90;44.10;;;;;;8375910;28;20393;-48
2021/06/12 09:04:59;;;;;;;7.32;6.18;;;23.90;43.70;;;;;;8383472;28;20364;-46
2021/06/12 09:08:59;;;;;;;6.85;5.38;;;23.90;44.00;;;;;;8396745;28;20047;-46
2021/06/12 09:13:01;;;;;;;6.43;5.60;;;23.90;43.70;;;;;;8392555;28;20035;-47
2021/06/12 09:17:01;;;;;;;7.97;6.15;;;24.00;44.20;;;;;;8390625;28;20046;-45
2021/06/12 09:21:03;;;;;;;7.03;5.40;;;23.90;44.00;;;;;;8392074;28;20481;-46
2021/06/12 09:25:04;;;;;;;6.47;5.60;;;24.00;44.00;;;;;;8396386;28;20064;-46
2021/06/12 09:29:04;;;;;;;5.90;5.30;;;24.00;43.90;;;;;;8390367;28;20091;-46
2021/06/12 09:33:05;;;;;;;6.87;5.40;;;24.00;43.50;;;;;;8391828;28;20036;-46
2021/06/12 09:37:14;;;;;;;5.50;4.95;;;24.10;43.20;;;;;;8391804;28;20040;-49
2021/06/12 09:41:28;;;;;;;6.25;5.05;;;24.10;43.20;;;;;;8390002;28;20447;-46
2021/06/12 09:45:31;;;;;;;6.78;5.40;;;24.10;43.20;;;;;;8395879;28;20086;-46
2021/06/12 09:49:34;;;;;;;6.18;5.57;;;24.10;43.10;;;;;;8391522;28;20053;-46
2021/06/12 09:53:47;;;;;;;5.65;4.97;;;24.10;43.30;;;;;;8384013;28;20385;-46
2021/06/12 09:57:50;;;;;;;5.95;5.35;;;24.20;43.30;;;;;;8374594;28;20071;-46
2021/06/12 10:01:51;;;;;;;5.13;4.63;;;24.20;43.00;;;;;;8391708;28;20032;-47
2021/06/12 10:06:10;;;;;;;5.57;4.95;;;24.20;43.00;;;;;;8361106;28;20100;-45
2021/06/12 10:10:13;;;;;;;7.20;4.93;;;24.20;43.00;;;;;;8358102;28;20409;-45
2021/06/12 10:14:14;;;;;;;4.95;4.45;;;24.30;42.90;;;;;;8356438;28;20179;-46
2021/06/12 10:18:20;;;;;;;5.28;4.78;;;24.30;42.80;;;;;;8358214;28;20033;-46
2021/06/12 10:22:21;;;;;;;5.40;4.80;;;24.40;42.80;;;;;;8388901;28;20039;-47
2021/06/12 10:26:22;;;;;;;5.82;5.25;;;24.40;42.80;;;;;;8370975;28;20091;-45
2021/06/12 10:30:25;;;;;;;5.38;4.72;;;24.40;42.80;;;;;;8397410;28;20378;-48
2021/06/12 10:34:27;;;;;;;5.65;5.07;;;24.50;42.80;;;;;;8397770;28;20040;-49
2021/06/12 10:38:31;;;;;;;4.80;4.30;;;24.50;42.70;;;;;;8395929;28;20032;-46
2021/06/12 10:42:31;;;;;;;5.95;4.63;;;24.50;42.70;;;;;;8401923;28;20031;-46
2021/06/12 10:46:34;;;;;;;6.05;4.88;;;24.50;42.80;;;;;;8397113;28;20032;-48
2021/06/12 10:50:43;;;;;;;5.43;4.90;;;24.50;42.70;;;;;;8395248;28;20083;-47
2021/06/12 10:54:44;;;;;;;6.13;5.53;;;24.60;42.70;;;;;;8396685;28;20115;-48
2021/06/12 10:58:46;;;;;;;5.57;5.07;;;24.60;42.60;;;;;;8400969;28;20047;-47
2021/06/12 11:02:56;;;;;;;7.18;5.35;;;24.60;42.60;;;;;;8387442;28;20272;-46
2021/06/12 11:07:00;;;;;;;4.97;4.57;;;24.60;42.60;;;;;;8363703;28;20037;-47
2021/06/12 11:11:33;;;;;;;5.38;4.88;;;24.60;42.60;;;;;;8387530;28;20466;-46
2021/06/12 11:15:35;;;;;;;5.97;5.25;;;24.70;42.50;;;;;;8396679;28;20481;-46
2021/06/12 11:19:47;;;;;;;5.93;5.32;;;24.70;42.40;;;;;;8377946;28;20116;-46
2021/06/12 11:23:54;;;;;;;8.25;5.82;;;24.70;42.40;;;;;;8372134;28;20033;-47
2021/06/12 11:28:16;;;;;;;5.50;5.00;;;24.70;42.30;;;;;;8395938;28;20151;-48
2021/06/12 11:32:29;;;;;;;6.55;5.60;;;24.70;42.40;;;;;;8369142;27;20042;-46
2021/06/12 11:36:29;;;;;;;5.95;5.03;;;24.70;42.40;;;;;;8382646;28;20021;-47
2021/06/12 11:40:30;;;;;;;5.80;5.20;;;24.80;42.50;;;;;;8367229;28;20124;-46
2021/06/12 11:44:31;;;;;;;6.00;4.97;;;24.80;43.00;;;;;;8361044;28;20040;-46
2021/06/12 11:48:40;;;;;;;5.90;5.30;;;24.80;42.40;;;;;;8361921;28;20123;-46
2021/06/12 11:52:43;;;;;;;5.75;5.15;;;24.90;42.50;;;;;;8362148;28;20033;-46
2021/06/12 11:56:46;;;;;;;5.75;5.15;;;24.80;42.30;;;;;;8385158;28;20029;-46
2021/06/12 12:00:48;;;;;;;5.55;4.95;;;24.90;42.40;;;;;;8365082;28;20091;-46
2021/06/12 12:04:51;;;;;;;6.38;5.55;;;24.90;42.30;;;;;;8386007;28;20044;-48
2021/06/12 12:08:52;;;;;;;5.85;4.93;;;24.90;42.20;;;;;;8367886;28;20127;-47
2021/06/12 12:12:53;;;;;;;5.63;5.05;;;25.00;42.20;;;;;;8394459;28;20029;-47
2021/06/12 12:16:54;;;;;;;;;;;25.00;42.20;;;;;;8397443;28;20399;-47
2021/06/12 12:20:57;;;;;;;6.40;5.70;;;25.00;42.00;;;;;;8385362;28;19920;-46
2021/06/12 12:24:58;;;;;;;5.18;4.68;;;25.00;42.00;;;;;;8378676;28;20715;-47
2021/06/12 12:29:09;;;;;;;5.85;5.35;;;25.00;42.00;;;;;;8365279;28;20041;-47
2021/06/12 12:33:20;;;;;;;5.55;5.05;;;25.00;42.10;;;;;;8360863;28;20037;-48
2021/06/12 12:37:23;;;;;;;7.82;5.15;;;25.00;42.10;;;;;;8385500;28;20032;-47
2021/06/12 12:41:24;;;;;;;6.30;5.40;;;25.00;41.90;;;;;;8391406;28;20055;-46
2021/06/12 12:45:25;;;;;;;5.60;5.05;;;25.10;42.00;;;;;;8380349;28;20036;-46
2021/06/12 12:49:31;;;;;;;6.15;5.55;;;25.10;42.10;;;;;;8360555;28;20045;-47
2021/06/12 12:53:42;;;;;;;5.75;5.15;;;25.10;42.00;;;;;;8358179;28;20030;-47
2021/06/12 12:57:45;;;;;;;7.43;5.60;;;25.10;42.60;;;;;;8379669;28;20570;-46
2021/06/12 13:01:50;;;;;;;6.15;5.28;;;25.20;42.00;;;;;;8393107;28;20426;-48
2021/06/12 13:05:50;;;;;;;5.65;5.10;;;25.20;41.80;;;;;;8383096;28;20029;-45
2021/06/12 13:10:00;;;;;;;6.32;4.85;;;25.20;41.90;;;;;;8359652;28;20113;-46
2021/06/12 13:14:01;;;;;;;5.25;4.75;;;25.20;41.90;;;;;;8361851;28;20041;-45
2021/06/12 13:18:07;;;;;;;6.28;5.68;;;25.20;41.90;;;;;;8359236;28;20397;-45
2021/06/12 13:22:09;;;;;;;6.43;5.75;;;25.20;41.90;;;;;;8359593;28;20045;-45
2021/06/12 13:26:22;;;;;;;5.57;4.97;;;25.20;41.90;;;;;;8359687;28;20045;-46
2021/06/12 13:30:23;;;;;;;5.85;5.25;;;25.20;41.80;;;;;;8379701;28;20043;-45
2021/06/12 13:34:31;;;;;;;6.30;5.07;;;25.20;41.80;;;;;;8384416;28;20094;-47
2021/06/12 13:38:36;;;;;;;5.43;4.93;;;25.30;41.90;;;;;;8365596;28;20080;-46
2021/06/12 13:42:36;;;;;;;5.78;5.28;;;25.30;41.90;;;;;;8391759;28;20045;-47
2021/06/12 13:46:37;;;;;;;6.00;5.00;;;25.30;41.70;;;;;;8391669;28;20399;-45
2021/06/12 13:50:38;;;;;;;6.25;5.05;;;25.30;41.80;;;;;;8391090;28;20545;-44
2021/06/12 13:54:39;;;;;;;5.75;4.78;;;25.30;41.60;;;;;;8394409;28;20036;-45
2021/06/12 13:58:42;;;;;;;5.07;4.57;;;25.30;41.40;;;;;;8391421;28;20040;-45
2021/06/12 14:02:42;;;;;;;5.80;4.72;;;25.30;41.70;;;;;;8364951;28;20040;-44
2021/06/12 14:06:43;;;;;;;5.35;4.85;;;25.30;41.70;;;;;;8376647;28;20559;-45
2021/06/12 14:10:43;;;;;;;;;;;25.40;41.70;;;;;;8362911;28;20107;-45
2021/06/12 14:14:45;;;;;;;5.07;4.30;;;25.40;42.30;;;;;;8388170;28;19913;-46
2021/06/12 14:18:45;;;;;;;5.13;4.63;;;25.40;41.90;;;;;;8391316;28;20072;-46
2021/06/12 14:22:46;;;;;;;4.97;4.57;;;25.40;41.90;;;;;;8390995;28;20389;-45
2021/06/12 14:26:50;;;;;;;5.20;4.50;;;25.40;41.90;;;;;;8393212;28;20039;-46
2021/06/12 14:30:52;;;;;;;5.53;4.90;;;25.40;41.80;;;;;;8391071;28;20056;-47
2021/06/12 14:34:53;;;;;;;4.60;4.10;;;25.40;41.80;;;;;;8389085;28;20036;-46
2021/06/12 14:38:53;;;;;;;5.15;4.65;;;25.40;41.80;;;;;;8357555;28;20036;-46
2021/06/12 14:42:54;;;;;;;4.93;4.35;;;25.40;41.80;;;;;;8357558;28;24469;-45
2021/06/12 14:46:55;;;;;;;5.15;4.60;;;25.30;41.80;;;;;;8385149;28;20059;-46
2021/06/12 14:50:56;;;;;;;4.63;4.18;;;25.30;41.70;;;;;;8381428;28;20506;-45
2021/06/12 14:54:56;;;;;;;5.25;4.70;;;25.30;41.80;;;;;;8357467;28;20036;-46
2021/06/12 14:58:57;;;;;;;;;;;25.30;41.70;;;;;;8356530;28;20037;-49
2021/06/12 15:02:57;;;;;;;4.88;4.40;;;25.30;41.80;;;;;;8394736;28;19915;-47
2021/06/12 15:06:58;;;;;;;4.93;4.38;;;25.30;41.80;;;;;;8376765;28;20526;-48
2021/06/12 15:10:59;;;;;;;4.53;4.13;;;25.30;41.80;;;;;;8387099;28;20049;-46
2021/06/12 15:15:00;;;;;;;6.13;4.30;;;25.30;41.90;;;;;;8396152;28;20056;-46
2021/06/12 15:19:01;;;;;;;5.25;4.50;;;25.30;41.90;;;;;;8380933;28;20397;-45
2021/06/12 15:23:01;;;;;;;4.80;4.40;;;25.30;41.90;;;;;;8364801;28;20037;-47
2021/06/12 15:27:02;;;;;;;4.40;4.00;;;25.30;42.10;;;;;;8386857;28;20115;-46
2021/06/12 15:31:03;;;;;;;;;;;25.30;42.00;;;;;;8380814;28;20473;-47
2021/06/12 15:35:05;;;;;;;4.13;3.73;;;25.20;42.10;;;;;;8367776;28;19917;-45
2021/06/12 15:39:07;;;;;;;4.15;3.58;;;25.20;42.20;;;;;;8366702;28;20032;-46
2021/06/12 15:43:08;;;;;;;4.25;3.75;;;25.20;42.10;;;;;;8362396;28;20485;-46
2021/06/12 15:47:09;;;;;;;5.78;4.00;;;25.20;42.10;;;;;;8362996;28;20037;-46
2021/06/12 15:51:09;;;;;;;4.50;4.10;;;25.20;42.20;;;;;;8395084;28;20052;-45
2021/06/12 15:55:12;;;;;;;5.20;4.70;;;25.20;42.10;;;;;;8399620;28;20060;-45
2021/06/12 15:59:13;;;;;;;3.83;3.53;;;25.20;42.20;;;;;;8393485;28;20047;-46
2021/06/12 16:03:13;;;;;;;4.53;4.13;;;25.20;42.20;;;;;;8383608;28;20433;-46
2021/06/12 16:07:14;;;;;;;4.00;3.70;;;25.20;42.20;;;;;;8381460;28;20098;-46
2021/06/12 16:11:15;;;;;;;;;;;25.20;42.20;;;;;;8393380;28;20037;-48
2021/06/12 16:15:18;;;;;;;4.93;4.37;;;25.20;42.10;;;;;;8398893;28;19952;-45
2021/06/12 16:19:19;;;;;;;4.03;3.63;;;25.20;42.10;;;;;;8393631;28;20103;-48
2021/06/12 16:23:20;;;;;;;4.28;3.78;;;25.20;42.40;;;;;;8392188;28;20033;-46
2021/06/12 16:27:20;;;;;;;4.28;3.72;;;25.20;42.50;;;;;;8381869;28;20029;-45
2021/06/12 16:31:21;;;;;;;4.10;3.72;;;25.20;42.50;;;;;;8365508;28;20045;-46
2021/06/12 16:35:22;;;;;;;6.70;3.85;;;25.20;42.40;;;;;;8359225;28;20082;-45
2021/06/12 16:39:22;;;;;;;4.20;3.80;;;25.20;42.50;;;;;;8360845;28;20060;-45
2021/06/12 16:43:23;;;;;;;4.65;3.75;;;25.20;42.60;;;;;;8381175;28;20028;-45
2021/06/12 16:47:24;;;;;;;4.50;4.10;;;25.20;42.60;;;;;;8371361;28;20036;-47
2021/06/12 16:51:25;;;;;;;;;;;25.20;42.60;;;;;;8393386;28;20041;-44
2021/06/12 16:59:26;;;;;;;8.57;3.40;;;25.30;43.60;;;;;;8360675;28;20025;-44
2021/06/12 17:03:26;;;;;;;4.72;3.78;;;25.30;44.10;;;;;;8358728;28;20071;-44
2021/06/12 17:07:27;;;;;;;33.20;19.60;;;25.40;44.10;;;;;;8362369;28;20072;-44
2021/06/12 17:11:31;;;;;;;40.67;18.23;;;25.40;43.50;;;;;;8361662;28;20036;-45
2021/06/12 17:15:33;;;;;;;24.60;16.13;;;25.40;44.10;;;;;;8378387;28;20528;-43
2021/06/12 17:19:33;;;;;;;21.85;12.60;;;25.40;43.60;;;;;;8378597;28;20508;-45
2021/06/12 17:23:34;;;;;;;22.02;13.77;;;25.40;43.80;;;;;;8388984;28;20108;-46
2021/06/12 17:27:35;;;;;;;;;;;25.40;44.00;;;;;;8365101;28;20037;-47
2021/06/12 17:31:35;;;;;;;25.60;9.45;;;25.50;44.70;;;;;;8363147;28;19958;-48
2021/06/12 17:35:38;;;;;;;9.85;5.50;;;25.50;44.60;;;;;;8348351;28;20414;-46
2021/06/12 17:39:38;;;;;;;13.23;7.00;;;25.60;44.00;;;;;;8357186;28;20409;-46
2021/06/12 17:43:39;;;;;;;15.93;9.40;;;25.60;44.30;;;;;;8385340;28;20040;-48
2021/06/12 17:47:40;;;;;;;;;;;25.60;44.70;;;;;;8389903;28;20562;-44
2021/06/12 17:51:40;;;;;;;37.87;19.57;;;25.60;45.00;;;;;;8376680;28;19917;-46
2021/06/12 17:55:41;;;;;;;29.80;15.55;;;25.60;44.60;;;;;;8355849;28;20543;-47
2021/06/12 17:59:42;;;;;;;;;;;25.70;44.90;;;;;;8356508;28;20385;-43
2021/06/12 18:03:43;;;;;;;48.73;29.53;;;25.70;45.20;;;;;;8371513;28;19955;-44
2021/06/12 18:07:44;;;;;;;35.50;20.88;;;25.70;44.00;;;;;;8386441;28;20047;-44
2021/06/12 18:11:47;;;;;;;43.17;21.92;;;25.70;43.00;;;;;;8386733;28;20108;-43
2021/06/12 18:15:47;;;;;;;38.60;18.52;;;25.80;43.40;;;;;;8387388;28;20032;-43
2021/06/12 18:19:48;;;;;;;34.20;16.33;;;25.70;42.90;;;;;;8387004;28;20067;-46
2021/06/12 18:23:48;;;;;;;18.55;9.77;;;25.70;43.30;;;;;;8387320;28;20036;-43
2021/06/12 18:27:49;;;;;;;;;;;25.70;42.80;;;;;;8391196;28;20056;-44
2021/06/12 18:31:50;;;;;;;28.80;10.03;;;25.80;42.90;;;;;;8388740;28;20321;-43
2021/06/12 18:35:52;;;;;;;31.58;19.10;;;25.70;42.80;;;;;;8392060;28;20082;-43
2021/06/12 18:39:53;;;;;;;17.95;10.35;;;25.70;42.60;;;;;;8374220;28;20037;-43
2021/06/12 18:43:53;;;;;;;24.92;12.70;;;25.70;42.20;;;;;;8368030;28;20462;-43
2021/06/12 20:05:49;;;;;;;3.72;1.92;;;25.20;43.40;;;;;;8417536;27;20393;-52
2021/06/12 20:09:50;;;;;;;6.28;1.80;;;25.00;45.30;;;;;;8352786;28;20165;-57
2021/06/12 20:13:50;;;;;;;7.85;2.60;;;24.90;45.20;;;;;;8353033;28;20045;-59
2021/06/12 20:17:51;;;;;;;5.95;2.70;;;24.90;45.30;;;;;;8355010;28;20473;-56
2021/06/12 20:21:52;;;;;;;4.85;3.00;;;25.00;44.50;;;;;;8355111;28;20436;-50
2021/06/12 20:25:54;;;;;;;4.00;2.03;;;25.10;44.80;;;;;;8355202;28;20021;-52
2021/06/12 20:29:54;;;;;;;5.85;1.60;;;25.20;45.60;;;;;;8355023;28;20053;-55
2021/06/12 20:33:55;;;;;;;4.10;1.90;;;25.20;45.10;;;;;;8354367;28;20041;-55
2021/06/12 20:37:55;;;;;;;3.85;2.15;;;25.30;45.30;;;;;;8353732;28;20522;-55
2021/06/12 20:41:56;;;;;;;3.65;2.10;;;25.30;45.20;;;;;;8354339;28;20080;-56
2021/06/12 20:45:57;;;;;;;3.17;1.92;;;25.40;45.20;;;;;;8354318;28;20094;-54
2021/06/12 20:49:57;;;;;;;6.43;2.10;;;25.40;45.20;;;;;;8353860;28;20112;-52
2021/06/12 20:53:58;;;;;;;2.75;1.90;;;25.40;45.10;;;;;;8353718;28;20052;-55
2021/06/12 20:57:59;;;;;;;;;;;25.40;45.30;;;;;;8354131;28;20017;-58
2021/06/12 21:02:00;;;;;;;5.45;2.33;;;25.40;45.30;;;;;;8353396;28;19908;-56
2021/06/12 21:06:00;;;;;;;4.35;1.92;;;25.40;45.30;;;;;;8336168;28;20022;-57
2021/06/12 21:10:01;;;;;;;6.63;2.22;;;25.40;45.20;;;;;;8331326;28;20108;-54
2021/06/12 21:14:02;;;;;;;2.53;1.80;;;25.50;45.20;;;;;;8330665;28;20107;-57
2021/06/12 21:18:03;;;;;;;6.57;2.33;;;25.50;45.30;;;;;;8333167;28;20022;-54
2021/06/12 21:22:03;;;;;;;;;;;25.50;45.40;;;;;;8341584;28;20053;-57
2021/06/12 21:26:04;;;;;;;2.60;2.03;;;25.40;45.30;;;;;;8330764;28;19919;-55
2021/06/12 21:30:05;;;;;;;4.53;1.98;;;25.40;45.10;;;;;;8335978;28;20024;-55
2021/06/12 21:34:06;;;;;;;3.70;1.88;;;25.50;45.10;;;;;;8331603;28;20052;-50
2021/06/12 21:38:06;;;;;;;2.90;1.88;;;25.50;45.10;;;;;;8323902;28;20029;-55
2021/06/12 21:42:09;;;;;;;3.30;2.20;;;25.50;45.30;;;;;;8331186;28;20041;-56
2021/06/12 21:46:10;;;;;;;2.30;1.80;;;25.50;45.80;;;;;;8330494;28;20112;-55
2021/06/12 21:50:11;;;;;;;7.15;2.22;;;25.50;45.80;;;;;;8305840;28;20049;-56
2021/06/12 21:54:12;;;;;;;4.93;1.90;;;25.50;45.80;;;;;;8308559;28;20034;-49
2021/06/12 21:58:12;;;;;;;2.25;2.00;;;25.40;45.10;;;;;;8330045;28;20064;-49
2021/06/12 22:02:13;;;;;;;5.97;1.70;;;25.20;44.10;;;;;;8330124;28;20502;-49
2021/06/12 22:06:14;;;;;;;2.90;2.25;;;25.00;44.20;;;;;;8304059;28;20029;-51
2021/06/12 22:10:14;;;;;;;3.55;2.22;;;24.80;44.50;;;;;;8296686;28;20083;-50
2021/06/12 22:14:15;;;;;;;2.92;1.80;;;24.70;44.70;;;;;;8296885;28;20084;-49
2021/06/12 22:18:16;;;;;;;9.68;2.85;;;24.60;45.00;;;;;;8320515;28;20028;-53
2021/06/12 22:22:17;;;;;;;;;;;24.60;45.70;;;;;;8329655;28;20122;-53
2021/06/12 22:26:17;;;;;;;5.07;2.07;;;24.70;45.40;;;;;;8329338;28;19905;-55